createdAt,value
2022-08-17T00:00:40.310Z,20.06
2022-08-17T00:01:19.023Z,20.00
2022-08-17T00:01:56.459Z,20.00
2022-08-17T00:02:29.123Z,20.00
2022-08-17T00:03:08.469Z,19.94
2022-08-17T00:03:45.672Z,19.94
2022-08-17T00:04:19.339Z,19.94
2022-08-17T00:04:52.323Z,19.94
2022-08-17T00:05:25.914Z,19.94
2022-08-17T00:06:02.359Z,19.94
2022-08-17T00:06:35.702Z,19.88
2022-08-17T00:07:08.342Z,19.88
2022-08-17T00:07:41.898Z,19.88
2022-08-17T00:08:16.971Z,19.88
2022-08-17T00:08:55.088Z,19.88
2022-08-17T00:09:27.676Z,19.88
2022-08-17T00:10:00.198Z,19.88
2022-08-17T00:10:32.760Z,19.81
2022-08-17T00:11:08.366Z,19.81
2022-08-17T00:11:43.158Z,19.81
2022-08-17T00:12:44.153Z,19.75
2022-08-17T00:13:21.425Z,19.75
2022-08-17T00:13:58.640Z,19.75
2022-08-17T00:14:31.258Z,19.75
2022-08-17T00:15:06.044Z,19.69
2022-08-17T00:15:41.081Z,19.69
2022-08-17T00:16:18.232Z,19.69
2022-08-17T00:16:56.974Z,19.69
2022-08-17T00:17:30.202Z,19.69
2022-08-17T00:18:04.300Z,19.63
2022-08-17T00:19:07.511Z,19.63
2022-08-17T00:19:42.126Z,19.63
2022-08-17T00:20:15.343Z,19.69
2022-08-17T00:20:50.946Z,19.69
2022-08-17T00:21:25.587Z,19.69
2022-08-17T00:22:34.061Z,19.69
2022-08-17T00:23:04.027Z,19.69
2022-08-17T00:23:38.222Z,19.69
2022-08-17T00:24:11.334Z,19.63
2022-08-17T00:24:43.819Z,19.63
2022-08-17T00:25:20.024Z,19.63
2022-08-17T00:25:53.397Z,19.63
2022-08-17T00:26:43.507Z,19.56
2022-08-17T00:27:17.935Z,19.56
2022-08-17T00:27:50.465Z,19.56
2022-08-17T00:28:24.650Z,19.56
2022-08-17T00:28:58.308Z,19.56
2022-08-17T00:29:30.831Z,19.63
2022-08-17T00:30:05.764Z,19.63
2022-08-17T00:30:53.235Z,19.63
2022-08-17T00:31:27.592Z,19.63
2022-08-17T00:32:01.635Z,19.63
2022-08-17T00:33:15.525Z,19.63
2022-08-17T00:33:47.911Z,19.63
2022-08-17T00:34:21.803Z,19.63
2022-08-17T00:34:54.277Z,19.63
2022-08-17T00:35:28.736Z,19.63
2022-08-17T00:36:02.138Z,19.63
2022-08-17T00:36:34.817Z,19.63
2022-08-17T00:37:08.456Z,19.63
2022-08-17T00:37:41.427Z,19.63
2022-08-17T00:38:15.269Z,19.63
2022-08-17T00:38:48.819Z,19.63
2022-08-17T00:39:21.314Z,19.63
2022-08-17T00:39:53.958Z,19.56
2022-08-17T00:40:40.833Z,19.56
2022-08-17T00:41:20.749Z,19.56
2022-08-17T00:41:54.256Z,19.56
2022-08-17T00:42:31.073Z,19.56
2022-08-17T00:43:13.512Z,19.56
2022-08-17T00:43:49.782Z,19.56
2022-08-17T00:44:22.580Z,19.56
2022-08-17T00:45:04.471Z,19.56
2022-08-17T00:45:38.005Z,19.56
2022-08-17T00:46:13.284Z,19.56
2022-08-17T00:46:47.849Z,19.56
2022-08-17T00:47:21.324Z,19.56
2022-08-17T00:47:53.806Z,19.63
2022-08-17T00:48:30.263Z,19.56
2022-08-17T00:49:04.894Z,19.56
2022-08-17T00:49:38.801Z,19.56
2022-08-17T00:50:17.871Z,19.56
2022-08-17T00:50:58.293Z,19.56
2022-08-17T00:51:34.506Z,19.50
2022-08-17T00:52:15.507Z,19.50
2022-08-17T00:52:52.551Z,19.50
2022-08-17T00:53:26.709Z,19.56
2022-08-17T00:54:04.086Z,19.56
2022-08-17T00:54:42.029Z,19.56
2022-08-17T00:55:15.351Z,19.56
2022-08-17T00:55:49.182Z,19.56
2022-08-17T00:56:33.184Z,19.56
2022-08-17T00:57:09.572Z,19.56
2022-08-17T00:57:47.229Z,19.56
2022-08-17T00:58:30.423Z,19.56
2022-08-17T00:59:11.313Z,19.56
2022-08-17T01:00:01.595Z,19.63
2022-08-17T01:00:40.315Z,19.63
2022-08-17T01:01:21.791Z,19.56
2022-08-17T01:01:54.994Z,19.56
2022-08-17T01:02:29.719Z,19.56
2022-08-17T01:03:11.887Z,19.56
2022-08-17T01:03:44.569Z,19.56
2022-08-17T01:04:20.416Z,19.56
2022-08-17T01:04:55.315Z,19.56
2022-08-17T01:05:31.599Z,19.56
2022-08-17T01:06:09.073Z,19.56
2022-08-17T01:06:42.977Z,19.56
2022-08-17T01:07:16.978Z,19.56
2022-08-17T01:07:50.744Z,19.56
2022-08-17T01:08:27.972Z,19.56
2022-08-17T01:09:01.383Z,19.56
2022-08-17T01:09:35.330Z,19.56
2022-08-17T01:10:58.881Z,19.56
2022-08-17T01:11:07.030Z,19.56
2022-08-17T01:11:40.610Z,19.56
2022-08-17T01:12:13.447Z,19.56
2022-08-17T01:12:46.158Z,19.56
2022-08-17T01:13:20.036Z,19.50
2022-08-17T01:13:52.600Z,19.50
2022-08-17T01:14:27.431Z,19.50
2022-08-17T01:14:59.929Z,19.50
2022-08-17T01:15:35.222Z,19.50
2022-08-17T01:16:15.951Z,19.50
2022-08-17T01:16:50.616Z,19.44
2022-08-17T01:17:23.415Z,19.44
2022-08-17T01:17:56.976Z,19.44
2022-08-17T01:18:29.734Z,19.44
2022-08-17T01:19:06.514Z,19.44
2022-08-17T01:19:42.275Z,19.44
2022-08-17T01:20:16.864Z,19.44
2022-08-17T01:20:51.315Z,19.44
2022-08-17T01:21:30.301Z,19.50
2022-08-17T01:22:08.934Z,19.50
2022-08-17T01:22:42.975Z,19.50
2022-08-17T01:23:16.419Z,19.50
2022-08-17T01:23:53.425Z,19.50
2022-08-17T01:24:25.984Z,19.50
2022-08-17T01:25:01.715Z,19.50
2022-08-17T01:25:35.667Z,19.50
2022-08-17T01:26:08.648Z,19.50
2022-08-17T01:26:42.762Z,19.50
2022-08-17T01:27:18.627Z,19.50
2022-08-17T01:27:53.209Z,19.50
2022-08-17T01:28:33.578Z,19.50
2022-08-17T01:29:25.887Z,19.50
2022-08-17T01:30:02.607Z,19.50
2022-08-17T01:30:57.241Z,19.50
2022-08-17T01:31:31.984Z,19.50
2022-08-17T01:32:07.105Z,19.50
2022-08-17T01:32:40.633Z,19.50
2022-08-17T01:33:14.240Z,19.50
2022-08-17T01:33:47.528Z,19.50
2022-08-17T01:34:21.046Z,19.50
2022-08-17T01:34:55.463Z,19.50
2022-08-17T01:35:28.158Z,19.50
2022-08-17T01:36:00.739Z,19.50
2022-08-17T01:36:34.311Z,19.50
2022-08-17T01:37:07.318Z,19.50
2022-08-17T01:37:42.848Z,19.50
2022-08-17T01:38:17.151Z,19.50
2022-08-17T01:39:00.218Z,19.50
2022-08-17T01:39:36.598Z,19.50
2022-08-17T01:40:16.326Z,19.50
2022-08-17T01:40:57.474Z,19.50
2022-08-17T01:41:30.495Z,19.50
2022-08-17T01:42:09.960Z,19.50
2022-08-17T01:42:46.113Z,19.50
2022-08-17T01:43:22.801Z,19.50
2022-08-17T01:43:58.336Z,19.50
2022-08-17T01:44:31.189Z,19.50
2022-08-17T01:45:08.305Z,19.50
2022-08-17T01:45:46.469Z,19.50
2022-08-17T01:46:23.828Z,19.50
2022-08-17T01:46:56.395Z,19.50
2022-08-17T01:47:30.213Z,19.50
2022-08-17T01:48:04.045Z,19.50
2022-08-17T01:48:38.045Z,19.50
2022-08-17T01:49:13.911Z,19.50
2022-08-17T01:49:46.370Z,19.44
2022-08-17T01:50:21.708Z,19.44
2022-08-17T01:50:55.233Z,19.44
2022-08-17T01:51:32.429Z,19.44
2022-08-17T01:52:09.785Z,19.44
2022-08-17T01:52:45.610Z,19.44
2022-08-17T01:53:21.987Z,19.44
2022-08-17T01:53:58.182Z,19.44
2022-08-17T01:54:31.779Z,19.44
2022-08-17T01:55:06.440Z,19.44
2022-08-17T01:55:45.297Z,19.50
2022-08-17T01:56:20.325Z,19.50
2022-08-17T01:56:53.261Z,19.50
2022-08-17T01:57:26.727Z,19.50
2022-08-17T01:57:59.568Z,19.50
2022-08-17T01:58:35.692Z,19.50
2022-08-17T01:59:09.282Z,19.50
2022-08-17T01:59:42.127Z,19.50
2022-08-17T02:00:15.473Z,19.50
2022-08-17T02:01:00.707Z,19.50
2022-08-17T02:01:35.819Z,19.50
2022-08-17T02:02:08.754Z,19.50
2022-08-17T02:02:45.031Z,19.50
2022-08-17T02:03:18.022Z,19.50
2022-08-17T02:03:59.446Z,19.50
2022-08-17T02:04:35.194Z,19.50
2022-08-17T02:05:08.577Z,19.50
2022-08-17T02:05:41.478Z,19.50
2022-08-17T02:06:27.546Z,19.50
2022-08-17T02:07:01.088Z,19.50
2022-08-17T02:07:59.415Z,19.50
2022-08-17T02:08:38.665Z,19.50
2022-08-17T02:09:16.451Z,19.50
2022-08-17T02:09:52.768Z,19.44
2022-08-17T02:10:25.391Z,19.44
2022-08-17T02:11:11.601Z,19.44
2022-08-17T02:11:46.279Z,19.50
2022-08-17T02:12:39.389Z,19.44
2022-08-17T02:13:12.662Z,19.44
2022-08-17T02:13:46.179Z,19.50
2022-08-17T02:14:19.164Z,19.50
2022-08-17T02:14:52.914Z,19.50
2022-08-17T02:15:25.764Z,19.50
2022-08-17T02:15:58.790Z,19.50
2022-08-17T02:16:36.853Z,19.50
2022-08-17T02:17:10.531Z,19.50
2022-08-17T02:17:43.027Z,19.50
2022-08-17T02:18:17.156Z,19.50
2022-08-17T02:18:49.732Z,19.50
2022-08-17T02:19:22.672Z,19.50
2022-08-17T02:19:56.124Z,19.50
2022-08-17T02:20:41.209Z,19.50
2022-08-17T02:21:15.717Z,19.50
2022-08-17T02:21:51.103Z,19.50
2022-08-17T02:22:26.130Z,19.50
2022-08-17T02:23:00.154Z,19.50
2022-08-17T02:23:40.430Z,19.50
2022-08-17T02:24:16.288Z,19.50
2022-08-17T02:24:59.608Z,19.50
2022-08-17T02:25:36.344Z,19.50
2022-08-17T02:26:09.519Z,19.50
2022-08-17T02:26:56.747Z,19.50
2022-08-17T02:27:30.566Z,19.50
2022-08-17T02:28:03.568Z,19.50
2022-08-17T02:28:36.422Z,19.50
2022-08-17T02:29:09.932Z,19.50
2022-08-17T02:29:42.510Z,19.50
2022-08-17T02:30:59.128Z,19.50
2022-08-17T02:31:12.528Z,19.50
2022-08-17T02:31:45.246Z,19.50
2022-08-17T02:32:25.385Z,19.50
2022-08-17T02:33:04.205Z,19.50
2022-08-17T02:33:43.239Z,19.56
2022-08-17T02:34:17.216Z,19.56
2022-08-17T02:34:50.524Z,19.56
2022-08-17T02:35:23.656Z,19.56
2022-08-17T02:35:57.889Z,19.56
2022-08-17T02:36:31.354Z,19.50
2022-08-17T02:37:03.998Z,19.50
2022-08-17T02:37:36.710Z,19.50
2022-08-17T02:38:10.929Z,19.50
2022-08-17T02:38:44.821Z,19.50
2022-08-17T02:39:17.501Z,19.50
2022-08-17T02:39:50.974Z,19.50
2022-08-17T02:40:36.621Z,19.50
2022-08-17T02:41:09.739Z,19.50
2022-08-17T02:41:44.606Z,19.50
2022-08-17T02:42:17.317Z,19.50
2022-08-17T02:42:50.133Z,19.50
2022-08-17T02:43:22.758Z,19.50
2022-08-17T02:43:56.244Z,19.50
2022-08-17T02:44:35.459Z,19.56
2022-08-17T02:45:20.126Z,19.50
2022-08-17T02:45:52.727Z,19.50
2022-08-17T02:46:25.378Z,19.50
2022-08-17T02:46:58.986Z,19.50
2022-08-17T02:47:31.503Z,19.50
2022-08-17T02:48:05.155Z,19.50
2022-08-17T02:48:39.901Z,19.50
2022-08-17T02:49:12.444Z,19.50
2022-08-17T02:49:54.203Z,19.50
2022-08-17T02:50:29.468Z,19.50
2022-08-17T02:51:02.078Z,19.50
2022-08-17T02:51:36.449Z,19.56
2022-08-17T02:52:09.928Z,19.56
2022-08-17T02:52:44.685Z,19.56
2022-08-17T02:53:22.696Z,19.56
2022-08-17T02:54:35.738Z,19.56
2022-08-17T02:54:50.154Z,19.56
2022-08-17T02:55:25.778Z,19.56
2022-08-17T02:55:58.430Z,19.56
2022-08-17T02:56:30.947Z,19.56
2022-08-17T02:57:04.538Z,19.56
2022-08-17T02:57:37.401Z,19.56
2022-08-17T02:58:10.648Z,19.56
2022-08-17T02:58:43.214Z,19.56
2022-08-17T02:59:16.816Z,19.56
2022-08-17T02:59:49.370Z,19.56
2022-08-17T03:00:26.506Z,19.56
2022-08-17T03:01:00.506Z,19.56
2022-08-17T03:01:33.120Z,19.56
2022-08-17T03:02:07.528Z,19.63
2022-08-17T03:02:41.900Z,19.56
2022-08-17T03:03:18.761Z,19.56
2022-08-17T03:03:51.466Z,19.56
2022-08-17T03:04:25.090Z,19.56
2022-08-17T03:04:57.650Z,19.56
2022-08-17T03:05:32.127Z,19.56
2022-08-17T03:06:07.669Z,19.56
2022-08-17T03:06:40.370Z,19.56
2022-08-17T03:07:12.887Z,19.56
2022-08-17T03:07:46.472Z,19.56
2022-08-17T03:08:22.278Z,19.63
2022-08-17T03:08:56.140Z,19.63
2022-08-17T03:09:29.571Z,19.63
2022-08-17T03:10:02.781Z,19.63
2022-08-17T03:10:35.716Z,19.63
2022-08-17T03:11:09.162Z,19.63
2022-08-17T03:11:41.644Z,19.63
2022-08-17T03:12:14.934Z,19.63
2022-08-17T03:12:50.198Z,19.63
2022-08-17T03:13:23.096Z,19.63
2022-08-17T03:13:56.783Z,19.63
2022-08-17T03:14:29.346Z,19.56
2022-08-17T03:15:03.993Z,19.56
2022-08-17T03:15:40.568Z,19.56
2022-08-17T03:16:16.293Z,19.56
2022-08-17T03:16:48.794Z,19.50
2022-08-17T03:17:22.291Z,19.50
2022-08-17T03:17:55.576Z,19.50
2022-08-17T03:18:28.189Z,19.50
2022-08-17T03:19:01.667Z,19.50
2022-08-17T03:19:34.154Z,19.50
2022-08-17T03:20:09.015Z,19.50
2022-08-17T03:20:43.022Z,19.56
2022-08-17T03:21:15.528Z,19.56
2022-08-17T03:21:55.111Z,19.56
2022-08-17T03:22:36.882Z,19.56
2022-08-17T03:23:11.142Z,19.56
2022-08-17T03:23:44.626Z,19.56
2022-08-17T03:24:19.100Z,19.56
2022-08-17T03:24:52.131Z,19.56
2022-08-17T03:25:29.874Z,19.63
2022-08-17T03:26:02.423Z,19.63
2022-08-17T03:26:35.389Z,19.63
2022-08-17T03:27:08.912Z,19.63
2022-08-17T03:27:42.055Z,19.63
2022-08-17T03:28:18.134Z,19.63
2022-08-17T03:28:50.624Z,19.63
2022-08-17T03:29:23.108Z,19.63
2022-08-17T03:29:56.582Z,19.69
2022-08-17T03:30:29.835Z,19.69
2022-08-17T03:31:03.002Z,19.69
2022-08-17T03:31:36.962Z,19.69
2022-08-17T03:32:13.706Z,19.69
2022-08-17T03:32:48.936Z,19.69
2022-08-17T03:33:23.142Z,19.69
2022-08-17T03:33:56.279Z,19.69
2022-08-17T03:34:28.905Z,19.69
2022-08-17T03:35:01.419Z,19.69
2022-08-17T03:35:36.465Z,19.69
2022-08-17T03:36:10.707Z,19.69
2022-08-17T03:36:43.447Z,19.69
2022-08-17T03:37:16.082Z,19.63
2022-08-17T03:37:59.985Z,19.63
2022-08-17T03:38:39.176Z,19.63
2022-08-17T03:39:12.044Z,19.56
2022-08-17T03:39:46.062Z,19.56
2022-08-17T03:40:36.985Z,19.50
2022-08-17T03:41:13.930Z,19.50
2022-08-17T03:41:47.336Z,19.44
2022-08-17T03:42:32.553Z,19.38
2022-08-17T03:43:06.944Z,19.31
2022-08-17T03:43:40.397Z,19.25
2022-08-17T03:44:13.010Z,19.19
2022-08-17T03:44:49.319Z,19.13
2022-08-17T03:45:39.206Z,19.06
2022-08-17T03:46:35.043Z,19.00
2022-08-17T03:47:26.474Z,18.94
2022-08-17T03:48:17.636Z,18.88
2022-08-17T03:49:08.721Z,18.81
2022-08-17T03:49:59.754Z,18.75
2022-08-17T03:50:50.551Z,18.75
2022-08-17T03:51:43.560Z,18.69
2022-08-17T03:52:34.267Z,18.56
2022-08-17T03:53:28.075Z,18.56
2022-08-17T03:54:19.323Z,18.50
2022-08-17T03:55:11.480Z,18.50
2022-08-17T03:56:02.683Z,18.50
2022-08-17T03:56:45.775Z,18.50
2022-08-17T03:57:19.205Z,18.56
2022-08-17T03:57:53.923Z,18.50
2022-08-17T03:58:26.498Z,18.50
2022-08-17T03:58:58.959Z,18.50
2022-08-17T03:59:32.964Z,18.50
2022-08-17T04:00:06.822Z,18.44
2022-08-17T04:00:45.434Z,18.38
2022-08-17T04:01:19.088Z,18.38
2022-08-17T04:01:53.932Z,18.38
2022-08-17T04:02:30.593Z,18.38
2022-08-17T04:03:04.321Z,18.31
2022-08-17T04:03:36.848Z,18.31
2022-08-17T04:04:09.375Z,18.31
2022-08-17T04:04:42.904Z,18.31
2022-08-17T04:05:15.398Z,18.25
2022-08-17T04:05:47.917Z,18.19
2022-08-17T04:06:21.421Z,18.19
2022-08-17T04:06:53.901Z,18.19
2022-08-17T04:07:29.397Z,18.13
2022-08-17T04:08:01.874Z,18.13
2022-08-17T04:08:37.692Z,18.13
2022-08-17T04:09:12.079Z,18.06
2022-08-17T04:09:44.996Z,18.06
2022-08-17T04:10:22.700Z,18.06
2022-08-17T04:10:58.890Z,18.00
2022-08-17T04:11:31.607Z,18.00
2022-08-17T04:12:06.106Z,18.00
2022-08-17T04:12:48.491Z,18.06
2022-08-17T04:13:24.190Z,18.06
2022-08-17T04:13:59.047Z,18.13
2022-08-17T04:14:36.215Z,18.13
2022-08-17T04:15:26.804Z,18.19
2022-08-17T04:15:59.915Z,18.25
2022-08-17T04:16:33.162Z,18.25
2022-08-17T04:17:06.774Z,18.25
2022-08-17T04:17:39.315Z,18.31
2022-08-17T04:18:11.863Z,18.25
2022-08-17T04:18:45.370Z,18.25
2022-08-17T04:19:17.871Z,18.25
2022-08-17T04:19:50.350Z,18.25
2022-08-17T04:20:25.561Z,18.25
2022-08-17T04:20:58.048Z,18.25
2022-08-17T04:21:31.623Z,18.25
2022-08-17T04:22:06.045Z,18.25
2022-08-17T04:22:38.897Z,18.19
2022-08-17T04:23:14.353Z,18.13
2022-08-17T04:23:48.132Z,18.06
2022-08-17T04:24:20.810Z,18.06
2022-08-17T04:24:53.264Z,18.06
2022-08-17T04:25:29.070Z,18.00
2022-08-17T04:26:01.615Z,18.00
2022-08-17T04:26:52.464Z,18.00
2022-08-17T04:27:27.704Z,18.00
2022-08-17T04:28:01.127Z,18.00
2022-08-17T04:28:33.620Z,18.00
2022-08-17T04:29:09.651Z,18.00
2022-08-17T04:29:54.422Z,18.00
2022-08-17T04:30:29.123Z,18.00
2022-08-17T04:31:02.575Z,18.06
2022-08-17T04:31:35.157Z,18.06
2022-08-17T04:32:07.938Z,18.06
2022-08-17T04:33:08.774Z,18.06
2022-08-17T04:33:43.969Z,18.06
2022-08-17T04:34:19.577Z,18.06
2022-08-17T04:34:52.998Z,18.06
2022-08-17T04:35:27.575Z,18.06
2022-08-17T04:36:03.585Z,18.06
2022-08-17T04:36:36.221Z,18.06
2022-08-17T04:37:08.715Z,18.00
2022-08-17T04:37:41.183Z,18.00
2022-08-17T04:38:17.354Z,18.00
2022-08-17T04:38:49.837Z,18.00
2022-08-17T04:39:25.018Z,18.00
2022-08-17T04:40:12.439Z,17.94
2022-08-17T04:41:05.556Z,18.00
2022-08-17T04:42:02.129Z,18.00
2022-08-17T04:42:34.707Z,18.00
2022-08-17T04:43:08.961Z,18.00
2022-08-17T04:43:44.757Z,18.00
2022-08-17T04:44:37.171Z,18.00
2022-08-17T04:45:10.488Z,17.94
2022-08-17T04:45:55.556Z,17.94
2022-08-17T04:46:32.815Z,17.88
2022-08-17T04:47:07.196Z,17.88
2022-08-17T04:47:43.121Z,17.88
2022-08-17T04:48:15.797Z,17.88
2022-08-17T04:48:52.090Z,17.88
2022-08-17T04:49:24.583Z,17.88
2022-08-17T04:49:57.400Z,17.88
2022-08-17T04:50:30.928Z,17.88
2022-08-17T04:51:06.913Z,17.88
2022-08-17T04:51:54.558Z,17.88
2022-08-17T04:52:29.799Z,17.88
2022-08-17T04:53:16.202Z,17.81
2022-08-17T04:54:05.331Z,17.81
2022-08-17T04:54:37.783Z,17.81
2022-08-17T04:55:10.751Z,17.81
2022-08-17T04:55:43.413Z,17.75
2022-08-17T04:56:19.185Z,17.75
2022-08-17T04:56:51.665Z,17.75
2022-08-17T04:57:25.109Z,17.75
2022-08-17T04:57:57.678Z,17.75
2022-08-17T04:58:30.280Z,17.75
2022-08-17T04:59:06.742Z,17.75
2022-08-17T04:59:39.224Z,17.75
2022-08-17T05:00:12.687Z,17.75
2022-08-17T05:00:45.356Z,17.75
2022-08-17T05:01:23.195Z,17.81
2022-08-17T05:01:56.701Z,17.81
2022-08-17T05:02:29.195Z,17.81
2022-08-17T05:03:02.796Z,17.81
2022-08-17T05:03:35.566Z,17.81
2022-08-17T05:04:33.110Z,17.81
2022-08-17T05:05:05.299Z,17.81
2022-08-17T05:05:43.173Z,17.81
2022-08-17T05:06:16.683Z,17.81
2022-08-17T05:06:49.608Z,17.81
2022-08-17T05:07:24.652Z,17.81
2022-08-17T05:08:02.439Z,17.81
2022-08-17T05:08:35.106Z,17.75
2022-08-17T05:09:08.540Z,17.75
2022-08-17T05:09:40.969Z,17.81
2022-08-17T05:10:13.558Z,17.81
2022-08-17T05:10:47.842Z,17.75
2022-08-17T05:11:22.576Z,17.81
2022-08-17T05:11:56.256Z,17.81
2022-08-17T05:12:28.841Z,17.81
2022-08-17T05:13:03.529Z,17.81
2022-08-17T05:13:36.996Z,17.81
2022-08-17T05:14:09.607Z,17.81
2022-08-17T05:14:42.091Z,17.81
2022-08-17T05:15:16.755Z,17.81
2022-08-17T05:15:55.788Z,17.81
2022-08-17T05:16:30.179Z,17.81
2022-08-17T05:17:07.046Z,17.81
2022-08-17T05:17:44.010Z,17.88
2022-08-17T05:18:18.484Z,17.88
2022-08-17T05:18:51.380Z,17.88
2022-08-17T05:19:24.881Z,17.88
2022-08-17T05:19:57.363Z,17.88
2022-08-17T05:20:29.973Z,17.88
2022-08-17T05:21:04.167Z,17.88
2022-08-17T05:21:36.655Z,17.88
2022-08-17T05:22:09.232Z,17.88
2022-08-17T05:22:51.185Z,17.88
2022-08-17T05:23:26.310Z,17.88
2022-08-17T05:23:59.570Z,17.88
2022-08-17T05:24:38.702Z,17.94
2022-08-17T05:25:18.256Z,17.88
2022-08-17T05:25:58.271Z,17.88
2022-08-17T05:26:32.273Z,17.88
2022-08-17T05:27:10.202Z,17.88
2022-08-17T05:27:49.316Z,17.88
2022-08-17T05:28:27.609Z,17.88
2022-08-17T05:29:03.067Z,17.88
2022-08-17T05:29:36.416Z,17.81
2022-08-17T05:30:10.584Z,17.81
2022-08-17T05:30:43.733Z,17.81
2022-08-17T05:31:16.529Z,17.81
2022-08-17T05:31:50.418Z,17.81
2022-08-17T05:32:38.701Z,17.81
2022-08-17T05:33:15.064Z,17.81
2022-08-17T05:33:49.524Z,17.75
2022-08-17T05:34:22.800Z,17.75
2022-08-17T05:34:59.934Z,17.75
2022-08-17T05:35:36.056Z,17.75
2022-08-17T05:36:10.873Z,17.75
2022-08-17T05:37:04.485Z,17.75
2022-08-17T05:37:37.027Z,17.75
2022-08-17T05:38:10.761Z,17.75
2022-08-17T05:38:44.606Z,17.69
2022-08-17T05:39:17.496Z,17.69
2022-08-17T05:39:50.007Z,17.69
2022-08-17T05:40:25.850Z,17.69
2022-08-17T05:40:59.309Z,17.69
2022-08-17T05:41:34.185Z,17.69
2022-08-17T05:42:07.187Z,17.69
2022-08-17T05:42:39.882Z,17.69
2022-08-17T05:43:16.164Z,17.69
2022-08-17T05:43:50.884Z,17.69
2022-08-17T05:44:27.836Z,17.69
2022-08-17T05:45:00.603Z,17.69
2022-08-17T05:45:55.390Z,17.69
2022-08-17T05:46:31.233Z,17.69
2022-08-17T05:47:05.514Z,17.69
2022-08-17T05:47:44.407Z,17.69
2022-08-17T05:48:18.103Z,17.69
2022-08-17T05:48:53.971Z,17.69
2022-08-17T05:49:29.274Z,17.69
2022-08-17T05:50:02.486Z,17.69
2022-08-17T05:50:48.652Z,17.69
2022-08-17T05:51:56.553Z,17.75
2022-08-17T05:52:39.362Z,17.75
2022-08-17T05:53:22.319Z,17.75
2022-08-17T05:54:04.863Z,17.75
2022-08-17T05:54:50.967Z,17.81
2022-08-17T05:55:32.966Z,17.81
2022-08-17T05:56:29.512Z,17.81
2022-08-17T05:57:27.164Z,17.81
2022-08-17T05:58:10.340Z,17.81
2022-08-17T05:58:55.704Z,17.81
2022-08-17T05:59:37.515Z,17.81
2022-08-17T06:00:16.964Z,17.81
2022-08-17T06:01:01.518Z,17.81
2022-08-17T06:01:42.412Z,17.81
2022-08-17T06:02:22.143Z,17.81
2022-08-17T06:03:09.543Z,17.81
2022-08-17T06:03:50.930Z,17.81
2022-08-17T06:04:31.711Z,17.75
2022-08-17T06:05:14.429Z,17.75
2022-08-17T06:05:59.975Z,17.75
2022-08-17T06:06:40.317Z,17.75
2022-08-17T06:07:20.799Z,17.75
2022-08-17T06:08:00.063Z,17.75
2022-08-17T06:08:40.062Z,17.69
2022-08-17T06:09:37.491Z,17.69
2022-08-17T06:10:15.426Z,17.69
2022-08-17T06:10:57.231Z,17.69
2022-08-17T06:11:46.635Z,17.69
2022-08-17T06:12:39.294Z,17.69
2022-08-17T06:13:20.096Z,17.75
2022-08-17T06:14:09.989Z,17.75
2022-08-17T06:14:58.867Z,17.75
2022-08-17T06:15:38.213Z,17.69
2022-08-17T06:16:33.610Z,17.69
2022-08-17T06:17:11.675Z,17.69
2022-08-17T06:17:45.467Z,17.69
2022-08-17T06:18:19.247Z,17.69
2022-08-17T06:19:00.076Z,17.69
2022-08-17T06:19:38.849Z,17.69
2022-08-17T06:20:14.297Z,17.69
2022-08-17T06:20:53.842Z,17.69
2022-08-17T06:21:31.896Z,17.69
2022-08-17T06:22:08.564Z,17.69
2022-08-17T06:22:44.951Z,17.63
2022-08-17T06:23:24.405Z,17.63
2022-08-17T06:24:05.689Z,17.56
2022-08-17T06:24:42.934Z,17.56
2022-08-17T06:25:19.022Z,17.56
2022-08-17T06:25:55.580Z,17.56
2022-08-17T06:26:38.474Z,17.56
2022-08-17T06:27:20.497Z,17.56
2022-08-17T06:27:58.240Z,17.56
2022-08-17T06:28:37.139Z,17.56
2022-08-17T06:29:35.389Z,17.56
2022-08-17T06:30:12.815Z,17.50
2022-08-17T06:30:59.429Z,17.50
2022-08-17T06:31:38.520Z,17.56
2022-08-17T06:32:12.949Z,17.56
2022-08-17T06:32:48.989Z,17.56
2022-08-17T06:33:27.377Z,17.50
2022-08-17T06:34:02.930Z,17.50
2022-08-17T06:34:37.401Z,17.50
2022-08-17T06:35:14.243Z,17.50
2022-08-17T06:35:54.401Z,17.50
2022-08-17T06:36:42.845Z,17.56
2022-08-17T06:37:38.007Z,17.56
2022-08-17T06:38:37.023Z,17.56
2022-08-17T06:39:23.261Z,17.63
2022-08-17T06:40:10.822Z,17.63
2022-08-17T06:40:57.121Z,17.63
2022-08-17T06:41:39.239Z,17.63
2022-08-17T06:43:00.819Z,17.63
2022-08-17T06:43:34.167Z,17.63
2022-08-17T06:44:43.451Z,17.63
2022-08-17T06:45:11.469Z,17.69
2022-08-17T06:45:49.395Z,17.63
2022-08-17T06:46:35.514Z,17.69
2022-08-17T06:47:12.493Z,17.69
2022-08-17T06:47:53.004Z,17.69
2022-08-17T06:48:31.959Z,17.69
2022-08-17T06:49:13.920Z,17.69
2022-08-17T06:49:55.217Z,17.69
2022-08-17T06:50:35.948Z,17.69
2022-08-17T06:51:17.019Z,17.75
2022-08-17T06:51:53.629Z,17.75
2022-08-17T06:52:45.752Z,17.75
2022-08-17T06:53:24.502Z,17.69
2022-08-17T06:54:06.517Z,17.69
2022-08-17T06:54:48.936Z,17.69
2022-08-17T06:55:26.449Z,17.63
2022-08-17T06:56:04.525Z,17.69
2022-08-17T06:56:53.844Z,17.63
2022-08-17T06:57:30.990Z,17.63
2022-08-17T06:58:15.991Z,17.63
2022-08-17T06:58:55.960Z,17.63
2022-08-17T06:59:54.604Z,17.69
2022-08-17T07:00:33.526Z,17.63
2022-08-17T07:01:11.600Z,17.63
2022-08-17T07:01:46.352Z,17.63
2022-08-17T07:02:29.472Z,17.69
2022-08-17T07:03:28.305Z,17.69
2022-08-17T07:04:11.956Z,17.69
2022-08-17T07:04:45.273Z,17.69
2022-08-17T07:05:20.589Z,17.69
2022-08-17T07:05:57.998Z,17.69
2022-08-17T07:06:37.786Z,17.69
2022-08-17T07:07:31.246Z,17.69
2022-08-17T07:08:11.671Z,17.69
2022-08-17T07:08:53.675Z,17.63
2022-08-17T07:09:31.179Z,17.63
2022-08-17T07:10:03.825Z,17.63
2022-08-17T07:10:40.897Z,17.63
2022-08-17T07:11:19.307Z,17.63
2022-08-17T07:11:54.962Z,17.63
2022-08-17T07:12:37.962Z,17.63
2022-08-17T07:13:29.499Z,17.63
2022-08-17T07:14:28.336Z,17.63
2022-08-17T07:15:08.299Z,17.63
2022-08-17T07:15:42.991Z,17.63
2022-08-17T07:16:21.360Z,17.63
2022-08-17T07:16:56.585Z,17.63
2022-08-17T07:17:46.479Z,17.56
2022-08-17T07:18:21.389Z,17.56
2022-08-17T07:18:56.192Z,17.56
2022-08-17T07:19:33.780Z,17.56
2022-08-17T07:20:10.442Z,17.50
2022-08-17T07:20:50.401Z,17.50
2022-08-17T07:21:38.699Z,17.50
2022-08-17T07:22:21.435Z,17.50
2022-08-17T07:23:01.830Z,17.44
2022-08-17T07:23:45.800Z,17.44
2022-08-17T07:24:33.163Z,17.44
2022-08-17T07:25:09.497Z,17.44
2022-08-17T07:25:42.031Z,17.50
2022-08-17T07:26:15.506Z,17.50
2022-08-17T07:26:49.546Z,17.50
2022-08-17T07:27:27.491Z,17.50
2022-08-17T07:28:02.412Z,17.50
2022-08-17T07:28:39.526Z,17.56
2022-08-17T07:29:18.751Z,17.56
2022-08-17T07:29:56.572Z,17.56
2022-08-17T07:30:44.596Z,17.56
2022-08-17T07:31:20.337Z,17.56
2022-08-17T07:31:54.865Z,17.56
2022-08-17T07:32:31.818Z,17.56
2022-08-17T07:33:12.555Z,17.56
2022-08-17T07:34:01.482Z,17.63
2022-08-17T07:35:15.597Z,17.63
2022-08-17T07:35:50.042Z,17.63
2022-08-17T07:36:29.974Z,17.63
2022-08-17T07:37:05.181Z,17.63
2022-08-17T07:37:39.876Z,17.63
2022-08-17T07:38:25.008Z,17.69
2022-08-17T07:38:59.626Z,17.69
2022-08-17T07:39:32.101Z,17.69
2022-08-17T07:40:28.115Z,17.63
2022-08-17T07:41:03.094Z,17.63
2022-08-17T07:41:58.650Z,17.63
2022-08-17T07:42:33.152Z,17.63
2022-08-17T07:43:22.005Z,17.63
2022-08-17T07:43:57.957Z,17.63
2022-08-17T07:44:32.760Z,17.56
2022-08-17T07:45:27.060Z,17.56
2022-08-17T07:46:34.291Z,17.56
2022-08-17T07:47:35.318Z,17.56
2022-08-17T07:48:20.067Z,17.56
2022-08-17T07:48:56.254Z,17.56
2022-08-17T07:49:37.085Z,17.56
2022-08-17T07:50:29.011Z,17.56
2022-08-17T07:51:01.574Z,17.56
2022-08-17T07:51:39.017Z,17.56
2022-08-17T07:52:50.916Z,17.56
2022-08-17T07:53:25.265Z,17.56
2022-08-17T07:54:13.459Z,17.63
2022-08-17T07:54:48.378Z,17.63
2022-08-17T07:55:29.462Z,17.63
2022-08-17T07:56:02.501Z,17.63
2022-08-17T07:56:41.682Z,17.63
2022-08-17T07:57:37.309Z,17.69
2022-08-17T07:58:15.336Z,17.69
2022-08-17T07:58:48.963Z,17.69
2022-08-17T07:59:24.215Z,17.69
2022-08-17T08:00:32.395Z,17.63
2022-08-17T08:01:09.031Z,17.63
2022-08-17T08:01:44.478Z,17.63
2022-08-17T08:02:30.141Z,17.56
2022-08-17T08:03:15.321Z,17.56
2022-08-17T08:03:52.543Z,17.56
2022-08-17T08:05:31.729Z,17.56
2022-08-17T08:06:23.815Z,17.63
2022-08-17T08:07:01.362Z,17.63
2022-08-17T08:07:38.212Z,17.63
2022-08-17T08:08:29.582Z,17.63